Latest Weather Observations for Batchelor

IDD60801

Issued at 10:11 pm CST Monday 6 July 2020 (issued every 10 minutes, with the page automatically refreshed every 10 minutes)

About weather observations | Map of weather stations | Latest weather observations for NT | Other Formats
Station Details ID: 014272 Name: BATCHELOR AIRPORT Lat: -13.05 Lon: 131.03 Height: 104.0 m
Data from the previous 72 hours. | See also: Recent months at Batchelor
Date/Time
CST
Temp
°C
App
Temp
°C
Dew
Point
°C
Rel
Hum
%
Delta-T
°C
Wind Press
QNH
hPa
Press
MSL
hPa
Rain since
9am
mm
Dir  Spd
km/h
Gust
km/h
Spd
kts
Gust
kts
06/10:00pm 24.2 21.4 5.1 29 9.6 SE 9 15 5 8 1015.9 1015.4 0.0
06/09:30pm 23.6 21.0 6.0 32 9.0 SE 9 11 5 6 1015.7 1015.2 0.0
06/09:00pm 23.7 21.6 6.0 32 9.1 SSE 6 9 3 5 1015.6 1015.1 0.0
06/08:30pm 24.5 22.4 5.8 30 9.6 SSE 6 9 3 5 1015.4 1014.9 0.0
06/08:00pm 24.2 22.1 6.0 31 9.3 SSE 6 7 3 4 1014.9 1014.4 0.0
06/07:30pm 25.2 23.0 6.4 30 9.8 SSE 7 9 4 5 1014.8 1014.3 0.0
06/07:00pm 25.8 23.7 5.9 28 10.3 SSE 6 7 3 4 1014.4 1013.9 0.0
06/06:30pm 27.3 24.7 6.1 26 11.1 SE 9 13 5 7 1014.0 1013.5 0.0
06/06:00pm 28.7 25.7 6.1 24 11.9 SSE 11 17 6 9 1013.6 1013.1 0.0
06/05:30pm 29.8 26.9 6.5 23 12.5 SE 11 17 6 9 1013.4 1012.9 0.0
06/05:00pm 30.1 26.5 6.7 23 12.6 SE 15 26 8 14 1013.2 1012.7 0.0
06/04:30pm 30.4 26.3 6.3 22 12.9 ESE 17 26 9 14 1013.0 1012.5 0.0
06/04:00pm 30.9 27.1 7.4 23 12.8 SE 17 28 9 15 1012.9 1012.4 0.0
06/03:30pm 31.0 27.6 7.5 23 12.9 SE 15 24 8 13 1013.0 1012.5 0.0
06/03:00pm 30.3 26.7 6.9 23 12.6 SE 15 22 8 12 1013.1 1012.6 0.0
06/02:30pm 30.2 26.5 6.1 22 12.8 SSE 15 24 8 13 1013.3 1012.8 0.0
06/02:00pm 29.6 25.1 6.3 23 12.4 SE 19 26 10 14 1013.7 1013.2 0.0
06/01:30pm 29.8 25.4 6.5 23 12.5 SE 19 28 10 15 1014.1 1013.6 0.0
06/01:00pm 29.4 25.3 6.1 23 12.4 SE 17 28 9 15 1014.6 1014.1 0.0
06/12:30pm 28.6 23.9 6.1 24 11.9 ESE 20 33 11 18 1015.1 1014.6 0.0
06/12:00pm 28.1 23.0 6.2 25 11.5 SE 22 32 12 17 1015.5 1015.0 0.0
06/11:30am 27.0 21.1 5.9 26 11.0 ESE 26 35 14 19 1016.0 1015.5 0.0
06/11:00am 26.2 20.8 6.3 28 10.4 SE 24 33 13 18 1016.4 1015.9 0.0
06/10:30am 25.3 19.6 6.5 30 9.8 ESE 26 37 14 20 1016.8 1016.3 0.0
06/10:00am 24.7 19.8 6.9 32 9.3 SE 22 33 12 18 1017.0 1016.5 0.0
06/09:30am 23.4 18.5 7.1 35 8.5 SE 22 33 12 18 1017.2 1016.7 0.0
06/09:00am 22.6 18.0 8.0 39 7.7 SE 22 32 12 17 1017.2 1016.7 0.0
06/08:30am 21.4 18.0 9.3 46 6.5 SE 17 24 9 13 1017.2 1016.7 0.0
06/08:00am 20.3 17.5 8.6 47 6.2 SE 13 20 7 11 1016.9 1016.4 0.0
06/07:30am 19.0 16.2 8.4 50 5.5 SE 13 15 7 8 1016.6 1016.1 0.0
06/07:00am 19.1 16.1 7.8 48 5.8 SE 13 17 7 9 1016.3 1015.8 0.0
06/06:30am 19.2 16.5 7.3 46 6.1 SE 11 15 6 8 1016.0 1015.5 0.0
06/06:00am 19.4 16.5 6.5 43 6.5 SE 11 17 6 9 1015.8 1015.3 0.0
06/05:30am 20.1 16.7 5.7 39 7.2 SE 13 19 7 10 1015.7 1015.2 0.0
06/05:00am 20.2 16.6 5.1 37 7.4 SE 13 17 7 9 1015.7 1015.2 0.0
06/04:30am 19.6 16.1 3.3 34 7.7 SE 11 15 6 8 1015.7 1015.2 0.0
06/04:00am 20.1 16.5 2.9 32 8.1 ESE 11 13 6 7 1015.6 1015.1 0.0
06/03:30am 20.1 16.0 2.0 30 8.4 SE 13 15 7 8 1015.6 1015.1 0.0
06/03:00am 19.7 16.0 2.1 31 8.1 SE 11 13 6 7 1015.9 1015.4 0.0
06/02:30am 20.6 16.8 2.0 29 8.6 ESE 11 15 6 8 1016.1 1015.6 0.0
06/02:00am 20.5 16.6 1.4 28 8.8 SE 11 15 6 8 1016.1 1015.6 0.0
06/01:30am 20.9 17.1 1.7 28 8.9 SE 11 15 6 8 1016.3 1015.8 0.0
06/01:00am 21.2 17.0 1.5 27 9.1 SE 13 17 7 9 1016.3 1015.8 0.0
06/12:30am 21.3 17.1 1.6 27 9.1 SE 13 17 7 9 1016.2 1015.7 0.0
06/12:00am 22.2 17.6 1.8 26 9.5 SE 15 20 8 11 1016.0 1015.5 0.0
 
Date/Time
CST
Temp
°C
App
Temp
°C
Dew
Point
°C
Rel
Hum
%
Delta-T
°C
Wind Press
QNH
hPa
Press
MSL
hPa
Rain since
9am
mm
Dir  Spd
km/h
Gust
km/h
Spd
kts
Gust
kts
05/11:30pm 22.6 18.1 2.1 26 9.7 SE 15 20 8 11 1015.9 1015.4 0.0
05/11:00pm 22.6 18.5 2.1 26 9.7 SE 13 20 7 11 1015.9 1015.4 0.0
05/10:30pm 22.8 19.2 2.8 27 9.6 SE 11 17 6 9 1015.9 1015.4 0.0
05/10:00pm 23.2 19.3 3.2 27 9.7 SE 13 19 7 10 1015.7 1015.2 0.0
05/09:30pm 23.4 19.9 3.4 27 9.7 SSE 11 17 6 9 1015.7 1015.2 0.0
05/09:00pm 23.3 20.6 3.8 28 9.5 SSE 7 13 4 7 1015.5 1015.0 0.0
05/08:30pm 22.5 20.0 4.5 31 8.9 SSE 7 9 4 5 1015.1 1014.6 0.0
05/08:00pm 21.7 19.6 5.6 35 8.1 SE 6 7 3 4 1014.9 1014.4 0.0
05/07:30pm 22.7 20.5 5.2 32 8.8 SE 6 7 3 4 1014.5 1014.0 0.0
05/07:00pm 24.3 21.9 5.1 29 9.7 SE 7 9 4 5 1014.2 1013.7 0.0
05/06:30pm 25.2 22.6 4.3 26 10.5 SE 7 9 4 5 1013.9 1013.4 0.0
05/06:00pm 27.4 23.3 4.5 23 11.7 ESE 15 24 8 13 1013.4 1012.9 0.0
05/05:30pm 28.3 23.5 4.6 22 12.2 SE 19 26 10 14 1013.0 1012.5 0.0
05/05:00pm 29.1 24.7 4.6 21 12.6 ESE 17 22 9 12 1012.8 1012.3 0.0
05/04:30pm 29.1 24.5 3.9 20 12.9 SE 17 22 9 12 1012.6 1012.2 0.0
05/04:00pm 29.1 24.8 5.2 22 12.5 ESE 17 28 9 15 1012.8 1012.3 0.0
05/03:30pm 29.5 24.6 4.9 21 12.8 ESE 20 30 11 16 1012.8 1012.3 0.0
05/03:00pm 29.1 24.3 4.6 21 12.6 ESE 19 30 10 16 1013.0 1012.5 0.0
05/02:30pm 28.8 23.7 4.3 21 12.6 ESE 20 33 11 18 1013.3 1012.8 0.0
05/02:00pm 28.7 23.4 4.9 22 12.3 ESE 22 39 12 21 1013.7 1013.2 0.0
05/01:30pm 28.9 23.6 5.1 22 12.4 SE 22 33 12 18 1014.2 1013.7 0.0
05/01:00pm 28.5 23.5 4.7 22 12.3 ESE 20 32 11 17 1014.7 1014.2 0.0
05/12:30pm 27.4 21.6 4.5 23 11.7 SE 24 33 13 18 1015.1 1014.6 0.0
05/12:00pm 26.9 20.9 5.2 25 11.2 ESE 26 41 14 22 1015.7 1015.2 0.0
05/11:30am 26.0 21.2 5.6 27 10.5 SSE 20 32 11 17 1016.2 1015.7 0.0
05/11:00am 25.2 20.5 5.9 29 10.0 SE 20 33 11 18 1017.0 1016.5 0.0
05/10:30am 24.3 18.8 6.1 31 9.4 SE 24 33 13 18 1017.3 1016.8 0.0
05/10:00am 24.3 19.1 7.4 34 8.9 SE 24 41 13 22 1017.2 1016.7 0.0
05/09:30am 24.0 19.6 8.8 38 8.2 SE 22 37 12 20 1017.2 1016.7 0.0
05/09:15am 23.1 17.6 9.1 41 7.6 SE 28 52 15 28 1017.1 1016.6 0.0
05/09:00am 22.9 18.3 9.7 43 7.2 SE 24 37 13 20 1017.1 1016.6 0.0
05/08:30am 22.4 17.9 10.2 46 6.7 SE 24 33 13 18 1017.0 1016.5 0.0
05/08:00am 21.3 18.7 9.5 47 6.3 SSE 13 24 7 13 1016.8 1016.3 0.0
05/07:30am 19.6 17.4 9.5 52 5.4 SE 11 15 6 8 1016.3 1015.8 0.0
05/07:00am 19.1 17.3 9.6 54 5.1 SE 9 13 5 7 1016.1 1015.6 0.0
05/06:30am 18.6 16.9 9.9 57 4.6 SSE 9 11 5 6 1015.7 1015.2 0.0
05/06:00am 18.0 16.7 9.9 59 4.3 SE 7 9 4 5 1015.3 1014.8 0.0
05/05:30am 19.1 17.4 9.9 55 4.9 SE 9 13 5 7 1015.3 1014.8 0.0
05/05:00am 19.6 18.3 9.8 53 5.3 SSE 7 11 4 6 1015.2 1014.7 0.0
05/04:30am 20.4 18.2 9.3 49 5.9 ESE 11 17 6 9 1015.0 1014.5 0.0
05/04:00am 21.3 18.4 9.5 47 6.3 ESE 15 26 8 14 1014.9 1014.4 0.0
05/03:30am 22.1 18.7 9.3 44 6.9 ESE 17 22 9 12 1014.9 1014.4 0.0
05/03:00am 22.2 18.9 9.4 44 6.9 ESE 17 24 9 13 1015.2 1014.7 0.0
05/02:30am 22.3 18.7 8.4 41 7.4 ESE 17 24 9 13 1015.4 1014.9 0.0
05/02:00am 22.8 18.8 8.1 39 7.8 ESE 19 26 10 14 1015.7 1015.2 0.0
05/01:30am 23.2 19.1 7.7 37 8.2 ESE 19 28 10 15 1015.9 1015.4 0.0
05/01:00am 23.4 19.5 7.1 35 8.5 ESE 17 22 9 12 1016.0 1015.5 0.0
05/12:30am 22.9 19.6 6.6 35 8.4 SE 13 20 7 11 1016.1 1015.6 0.0
05/12:00am 23.1 19.9 6.8 35 8.4 SE 13 17 7 9 1016.2 1015.7 0.0
 
Date/Time
CST
Temp
°C
App
Temp
°C
Dew
Point
°C
Rel
Hum
%
Delta-T
°C
Wind Press
QNH
hPa
Press
MSL
hPa
Rain since
9am
mm
Dir  Spd
km/h
Gust
km/h
Spd
kts
Gust
kts
04/11:30pm 23.4 20.2 6.7 34 8.6 SE 13 17 7 9 1016.2 1015.7 0.0
04/11:00pm 23.3 20.9 7.0 35 8.5 SE 9 11 5 6 1016.3 1015.8 0.0
04/10:30pm 23.6 20.8 6.8 34 8.7 SE 11 13 6 7 1016.1 1015.6 0.0
04/10:00pm 23.9 21.5 7.1 34 8.8 SE 9 13 5 7 1016.2 1015.7 0.0
04/09:30pm 23.7 21.3 6.9 34 8.7 SE 9 11 5 6 1015.9 1015.4 0.0
04/09:00pm 24.3 21.9 7.0 33 9.0 SE 9 11 5 6 1015.8 1015.3 0.0
04/08:30pm 25.1 22.7 6.8 31 9.6 SE 9 13 5 7 1015.5 1015.0 0.0
04/08:00pm 25.7 23.3 6.8 30 9.9 SE 9 13 5 7 1015.2 1014.7 0.0
04/07:30pm 26.7 23.8 6.7 28 10.6 SE 11 17 6 9 1014.9 1014.4 0.0
04/07:00pm 27.7 24.2 7.0 27 11.0 SE 15 22 8 12 1014.6 1014.1 0.0
04/06:30pm 28.2 24.6 6.9 26 11.4 SE 15 20 8 11 1014.2 1013.7 0.0
04/06:00pm 29.5 24.6 6.8 24 12.2 SE 22 32 12 17 1013.8 1013.3 0.0
04/05:30pm 30.4 25.7 7.6 24 12.5 SE 22 32 12 17 1013.7 1013.2 0.0
04/05:00pm 30.9 25.9 8.0 24 12.6 SE 24 39 13 21 1013.5 1013.0 0.0
04/04:30pm 31.5 27.5 9.1 25 12.6 ESE 20 35 11 19 1013.5 1013.0 0.0
04/04:00pm 31.5 27.5 9.1 25 12.6 ESE 20 32 11 17 1013.6 1013.1 0.0
04/03:30pm 31.6 27.3 9.2 25 12.6 ESE 22 39 12 21 1013.7 1013.2 0.0
04/03:00pm 30.9 26.1 10.3 28 11.8 SE 26 39 14 21 1014.0 1013.5 0.0
04/02:30pm 30.7 26.4 10.6 29 11.6 ESE 24 41 13 22 1014.1 1013.6 0.0
04/02:00pm 30.3 25.3 10.8 30 11.2 SE 28 44 15 24 1014.5 1014.0 0.0
04/01:41pm 30.9 26.0 11.3 30 11.4 ESE 28 46 15 25 1014.8 1014.3 0.0
04/01:30pm 30.7 25.4 11.1 30 11.4 ESE 30 41 16 22 1015.0 1014.5 0.0
04/01:11pm 30.6 25.8 11.5 30 11.1 SE 28 48 15 26 1015.3 1014.8 0.0
04/01:00pm 30.4 25.3 11.9 32 10.8 ESE 30 50 16 27 1015.6 1015.1 0.0
04/12:49pm 30.1 24.9 11.6 32 10.8 SE 30 48 16 26 1015.7 1015.2 0.0
04/12:30pm 30.4 25.3 11.9 32 10.8 ESE 30 43 16 23 1016.1 1015.6 0.0
04/12:00pm 29.7 24.2 12.6 35 10.1 ESE 33 48 18 26 1016.6 1016.1 0.0
04/11:41am 29.6 24.4 11.6 33 10.5 ESE 30 50 16 27 1016.8 1016.3 0.0
04/11:30am 29.8 24.4 12.7 35 10.1 SE 33 48 18 26 1016.9 1016.4 0.0
04/11:00am 28.7 23.5 13.4 39 9.1 ESE 33 48 18 26 1016.8 1016.3 0.0
04/10:52am 29.2 25.1 13.8 39 9.3 ESE 28 46 15 25 1017.0 1016.5 0.0
04/10:30am 28.3 23.6 14.2 42 8.5 ESE 32 48 17 26 1017.2 1016.7 0.0
04/10:04am 27.5 23.2 14.5 45 7.8 ESE 30 48 16 26 1017.5 1017.0 0.0
04/10:00am 27.3 22.5 14.7 46 7.6 ESE 33 48 18 26 1017.5 1017.0 0.0
04/09:50am 26.9 23.1 14.6 46 7.4 ESE 28 48 15 26 1017.5 1017.0 0.0
04/09:30am 26.5 23.6 15.2 49 6.9 SE 24 43 13 23 1017.6 1017.1 0.0
04/09:00am 25.5 23.3 14.9 52 6.4 SE 20 32 11 17 1017.6 1017.1 0.0
04/08:30am 24.6 23.6 15.5 57 5.5 SE 15 22 8 12 1017.3 1016.8 0.0
04/08:00am 22.9 23.1 15.7 64 4.3 SE 9 13 5 7 1016.9 1016.4 0.0
04/07:30am 22.1 22.0 15.9 68 3.7 SE 11 15 6 8 1016.4 1015.9 0.0
04/07:00am 21.8 22.1 15.9 69 3.6 SE 9 15 5 8 1016.1 1015.6 0.0
04/06:30am 22.1 22.4 15.9 68 3.7 ESE 9 15 5 8 1015.9 1015.4 0.0
04/06:00am 22.5 22.3 15.8 66 4.0 ESE 11 15 6 8 1015.7 1015.2 0.0
04/05:30am 22.6 22.5 15.9 66 4.1 ESE 11 15 6 8 1015.6 1015.1 0.0
04/05:00am 22.4 22.7 16.0 67 3.9 SE 9 13 5 7 1015.5 1015.0 0.0
04/04:30am 22.6 23.0 16.2 67 3.9 SE 9 11 5 6 1015.6 1015.1 0.0
04/04:00am 22.7 23.5 17.2 71 3.4 SE 9 9 5 5 1015.5 1015.0 0.0
04/03:30am 22.8 24.3 18.1 75 2.9 ESE 7 9 4 5 1015.5 1015.0 0.0
04/03:00am 21.6 23.5 18.6 83 1.9 E 6 6 3 3 1015.8 1015.3 0.0
04/02:30am 21.4 24.4 18.4 83 1.9 CALM 0 2 0 1 1016.0 1015.5 0.0
04/02:00am 21.6 23.9 18.6 83 1.9 WNW 4 6 2 3 1016.2 1015.7 0.0
04/01:30am 22.7 26.1 19.3 81 2.2 CALM 0 0 0 0 1016.4 1015.9 0.0
04/01:00am 23.2 26.6 19.4 79 2.4 CALM 0 0 0 0 1016.4 1015.9 0.0
04/12:30am 23.3 26.8 19.5 79 2.4 CALM 0 4 0 2 1016.4 1015.9 0.0
04/12:00am 23.2 26.5 19.2 78 2.6 CALM 0 0 0 0 1016.3 1015.8 0.0
 
Date/Time
CST
Temp
°C
App
Temp
°C
Dew
Point
°C
Rel
Hum
%
Delta-T
°C
Wind Press
QNH
hPa
Press
MSL
hPa
Rain since
9am
mm
Dir  Spd
km/h
Gust
km/h
Spd
kts
Gust
kts
03/11:30pm 23.7 27.0 19.2 76 2.9 CALM 0 0 0 0 1016.2 1015.7 0.0
03/11:00pm 24.4 27.7 19.0 72 3.5 CALM 0 0 0 0 1016.2 1015.7 0.0
03/10:30pm 24.9 28.2 19.1 70 3.7 CALM 0 0 0 0 1016.2 1015.7 0.0

Other formats

Comma delimited format used in spreadsheet applications
http://www.bom.gov.au/fwo/IDD60801/IDD60801.94125.axf

JavaScript Object Notation format (JSON) in row-major order
http://www.bom.gov.au/fwo/IDD60801/IDD60801.94125.json

Data quality

Most of these data are generated automatically and are frequently updated. Quality checks on data are not normally performed. It is possible for incorrect values to appear. Refer to information at About Latest Weather Observations and please check the disclaimer before using these data.